Terminal Aerodrome Forecast
Issued by NWS

Home | Current Version | Previous Version | Text Only | Print | Product List | Glossary On
Versions: 1 2 3 4 5 6 7 8 9 10 11 12 13 14 15 16 17 18
805
FTUS43 KABR 220520
TAFMBG
TAF
KMBG 220520Z 2206/2306 15006KT P6SM OVC150
     FM220800 30009KT P6SM BKN150
     FM221600 31012KT P6SM BKN015
     FM230100 36010KT P6SM OVC015
     FM230400 03009KT P6SM OVC015=

USA.gov is the U.S. government's official web portal to all federal, state and local government web resources and services.